sensor_id;sensor_type;location;lat;lon;timestamp;P1;durP1;ratioP1;P2;durP2;ratioP2
14272;SDS011;7220;49.450;11.052;2024-03-02T00:02:45;11.15;;;6.13;;
14272;SDS011;7220;49.450;11.052;2024-03-02T00:06:46;10.18;;;6.47;;
14272;SDS011;7220;49.450;11.052;2024-03-02T00:10:46;11.85;;;7.15;;
14272;SDS011;7220;49.450;11.052;2024-03-02T00:14:47;10.45;;;6.63;;
14272;SDS011;7220;49.450;11.052;2024-03-02T00:18:47;15.57;;;7.45;;
14272;SDS011;7220;49.450;11.052;2024-03-02T00:22:48;9.18;;;6.30;;
14272;SDS011;7220;49.450;11.052;2024-03-02T00:26:48;10.48;;;6.13;;
14272;SDS011;7220;49.450;11.052;2024-03-02T00:30:59;8.60;;;6.03;;
14272;SDS011;7220;49.450;11.052;2024-03-02T00:35:07;11.27;;;6.50;;
14272;SDS011;7220;49.450;11.052;2024-03-02T00:39:08;12.55;;;6.82;;
14272;SDS011;7220;49.450;11.052;2024-03-02T00:43:18;10.25;;;5.95;;
14272;SDS011;7220;49.450;11.052;2024-03-02T00:47:24;9.73;;;6.13;;
14272;SDS011;7220;49.450;11.052;2024-03-02T00:51:25;12.30;;;6.22;;
14272;SDS011;7220;49.450;11.052;2024-03-02T00:55:26;12.30;;;6.72;;
14272;SDS011;7220;49.450;11.052;2024-03-02T00:59:27;8.38;;;5.88;;
14272;SDS011;7220;49.450;11.052;2024-03-02T01:03:27;12.38;;;6.80;;
14272;SDS011;7220;49.450;11.052;2024-03-02T01:07:27;12.07;;;6.53;;
14272;SDS011;7220;49.450;11.052;2024-03-02T01:11:28;10.95;;;6.47;;
14272;SDS011;7220;49.450;11.052;2024-03-02T01:15:30;12.88;;;6.68;;
14272;SDS011;7220;49.450;11.052;2024-03-02T01:19:30;9.85;;;5.95;;
14272;SDS011;7220;49.450;11.052;2024-03-02T01:23:31;14.23;;;7.82;;
14272;SDS011;7220;49.450;11.052;2024-03-02T01:27:31;9.48;;;6.30;;
14272;SDS011;7220;49.450;11.052;2024-03-02T01:31:31;13.45;;;6.65;;
14272;SDS011;7220;49.450;11.052;2024-03-02T01:35:32;13.85;;;6.43;;
14272;SDS011;7220;49.450;11.052;2024-03-02T01:39:34;10.85;;;6.38;;
14272;SDS011;7220;49.450;11.052;2024-03-02T01:43:34;11.65;;;6.22;;
14272;SDS011;7220;49.450;11.052;2024-03-02T01:47:35;12.27;;;7.18;;
14272;SDS011;7220;49.450;11.052;2024-03-02T01:51:36;13.90;;;7.07;;
14272;SDS011;7220;49.450;11.052;2024-03-02T01:55:36;12.70;;;6.95;;
14272;SDS011;7220;49.450;11.052;2024-03-02T01:59:37;10.75;;;6.10;;
14272;SDS011;7220;49.450;11.052;2024-03-02T02:03:37;11.50;;;6.90;;
14272;SDS011;7220;49.450;11.052;2024-03-02T02:07:38;13.05;;;7.38;;
14272;SDS011;7220;49.450;11.052;2024-03-02T02:11:38;12.73;;;5.90;;
14272;SDS011;7220;49.450;11.052;2024-03-02T02:15:39;9.32;;;5.78;;
14272;SDS011;7220;49.450;11.052;2024-03-02T02:19:40;8.70;;;5.82;;
14272;SDS011;7220;49.450;11.052;2024-03-02T02:23:41;9.95;;;6.32;;
14272;SDS011;7220;49.450;11.052;2024-03-02T02:27:46;12.95;;;7.13;;
14272;SDS011;7220;49.450;11.052;2024-03-02T02:31:47;7.95;;;5.22;;
14272;SDS011;7220;49.450;11.052;2024-03-02T02:35:47;12.57;;;6.50;;
14272;SDS011;7220;49.450;11.052;2024-03-02T02:39:47;11.23;;;6.65;;
14272;SDS011;7220;49.450;11.052;2024-03-02T02:43:48;10.45;;;6.13;;
14272;SDS011;7220;49.450;11.052;2024-03-02T02:47:49;11.05;;;6.05;;
14272;SDS011;7220;49.450;11.052;2024-03-02T02:51:49;10.68;;;5.35;;
14272;SDS011;7220;49.450;11.052;2024-03-02T02:55:49;11.68;;;6.65;;
14272;SDS011;7220;49.450;11.052;2024-03-02T02:59:50;11.23;;;6.10;;
14272;SDS011;7220;49.450;11.052;2024-03-02T03:03:50;8.65;;;4.97;;
14272;SDS011;7220;49.450;11.052;2024-03-02T03:07:50;13.23;;;6.45;;
14272;SDS011;7220;49.450;11.052;2024-03-02T03:11:51;10.40;;;6.32;;
14272;SDS011;7220;49.450;11.052;2024-03-02T03:15:51;8.32;;;5.75;;
14272;SDS011;7220;49.450;11.052;2024-03-02T03:19:52;10.90;;;5.95;;
14272;SDS011;7220;49.450;11.052;2024-03-02T03:23:52;11.32;;;5.95;;
14272;SDS011;7220;49.450;11.052;2024-03-02T03:27:52;10.38;;;5.25;;
14272;SDS011;7220;49.450;11.052;2024-03-02T03:31:53;8.93;;;5.43;;
14272;SDS011;7220;49.450;11.052;2024-03-02T03:35:53;7.97;;;5.13;;
14272;SDS011;7220;49.450;11.052;2024-03-02T03:39:53;7.82;;;5.18;;
14272;SDS011;7220;49.450;11.052;2024-03-02T03:43:54;9.68;;;4.88;;
14272;SDS011;7220;49.450;11.052;2024-03-02T03:47:54;7.13;;;4.50;;
14272;SDS011;7220;49.450;11.052;2024-03-02T03:51:55;8.82;;;4.85;;
14272;SDS011;7220;49.450;11.052;2024-03-02T03:55:56;7.30;;;4.20;;
14272;SDS011;7220;49.450;11.052;2024-03-02T03:59:56;7.80;;;4.78;;
14272;SDS011;7220;49.450;11.052;2024-03-02T04:03:56;8.95;;;5.72;;
14272;SDS011;7220;49.450;11.052;2024-03-02T04:07:57;9.73;;;5.50;;
14272;SDS011;7220;49.450;11.052;2024-03-02T04:12:01;10.70;;;5.07;;
14272;SDS011;7220;49.450;11.052;2024-03-02T04:16:01;8.38;;;4.78;;
14272;SDS011;7220;49.450;11.052;2024-03-02T04:20:03;6.07;;;4.43;;
14272;SDS011;7220;49.450;11.052;2024-03-02T04:24:05;8.50;;;5.13;;
14272;SDS011;7220;49.450;11.052;2024-03-02T04:28:05;6.47;;;3.92;;
14272;SDS011;7220;49.450;11.052;2024-03-02T04:32:06;7.03;;;4.03;;
14272;SDS011;7220;49.450;11.052;2024-03-02T04:36:06;6.53;;;4.22;;
14272;SDS011;7220;49.450;11.052;2024-03-02T04:40:09;7.10;;;4.78;;
14272;SDS011;7220;49.450;11.052;2024-03-02T04:44:10;8.23;;;4.63;;
14272;SDS011;7220;49.450;11.052;2024-03-02T04:48:10;5.47;;;4.25;;
14272;SDS011;7220;49.450;11.052;2024-03-02T04:52:11;9.63;;;4.60;;
14272;SDS011;7220;49.450;11.052;2024-03-02T04:56:11;7.47;;;4.47;;
14272;SDS011;7220;49.450;11.052;2024-03-02T05:00:30;5.35;;;4.30;;
14272;SDS011;7220;49.450;11.052;2024-03-02T05:04:31;6.43;;;4.10;;
14272;SDS011;7220;49.450;11.052;2024-03-02T05:08:31;5.82;;;3.95;;
14272;SDS011;7220;49.450;11.052;2024-03-02T05:12:31;6.95;;;4.03;;
14272;SDS011;7220;49.450;11.052;2024-03-02T05:16:44;8.48;;;4.25;;
14272;SDS011;7220;49.450;11.052;2024-03-02T05:20:44;7.75;;;4.40;;
14272;SDS011;7220;49.450;11.052;2024-03-02T05:24:45;7.05;;;4.18;;
14272;SDS011;7220;49.450;11.052;2024-03-02T05:28:45;6.43;;;4.35;;
14272;SDS011;7220;49.450;11.052;2024-03-02T05:32:45;7.72;;;5.00;;
14272;SDS011;7220;49.450;11.052;2024-03-02T05:36:46;6.68;;;4.10;;
14272;SDS011;7220;49.450;11.052;2024-03-02T05:40:46;7.10;;;4.22;;
14272;SDS011;7220;49.450;11.052;2024-03-02T05:44:46;5.80;;;4.45;;
14272;SDS011;7220;49.450;11.052;2024-03-02T05:48:47;6.90;;;4.55;;
14272;SDS011;7220;49.450;11.052;2024-03-02T05:52:47;8.38;;;5.35;;
14272;SDS011;7220;49.450;11.052;2024-03-02T05:56:48;8.88;;;4.40;;
14272;SDS011;7220;49.450;11.052;2024-03-02T06:00:48;9.57;;;4.75;;
14272;SDS011;7220;49.450;11.052;2024-03-02T06:04:48;8.52;;;4.32;;
14272;SDS011;7220;49.450;11.052;2024-03-02T06:08:49;6.28;;;4.25;;
14272;SDS011;7220;49.450;11.052;2024-03-02T06:12:49;8.32;;;4.35;;
14272;SDS011;7220;49.450;11.052;2024-03-02T06:16:50;8.25;;;4.20;;
14272;SDS011;7220;49.450;11.052;2024-03-02T06:20:50;8.85;;;4.47;;
14272;SDS011;7220;49.450;11.052;2024-03-02T06:24:51;7.95;;;4.57;;
14272;SDS011;7220;49.450;11.052;2024-03-02T06:28:51;10.60;;;4.97;;
14272;SDS011;7220;49.450;11.052;2024-03-02T06:32:52;6.68;;;3.80;;
14272;SDS011;7220;49.450;11.052;2024-03-02T06:36:52;8.40;;;5.18;;
14272;SDS011;7220;49.450;11.052;2024-03-02T06:40:52;15.27;;;6.18;;
14272;SDS011;7220;49.450;11.052;2024-03-02T06:44:53;7.88;;;5.10;;
14272;SDS011;7220;49.450;11.052;2024-03-02T06:48:54;8.02;;;4.78;;
14272;SDS011;7220;49.450;11.052;2024-03-02T06:52:54;8.25;;;5.03;;
14272;SDS011;7220;49.450;11.052;2024-03-02T06:56:56;7.80;;;4.47;;
14272;SDS011;7220;49.450;11.052;2024-03-02T07:00:56;6.38;;;4.05;;
14272;SDS011;7220;49.450;11.052;2024-03-02T07:04:56;5.47;;;3.83;;
14272;SDS011;7220;49.450;11.052;2024-03-02T07:08:57;6.38;;;4.93;;
14272;SDS011;7220;49.450;11.052;2024-03-02T07:12:57;8.57;;;4.80;;
14272;SDS011;7220;49.450;11.052;2024-03-02T07:16:57;9.63;;;4.82;;
14272;SDS011;7220;49.450;11.052;2024-03-02T07:20:58;8.50;;;5.28;;
14272;SDS011;7220;49.450;11.052;2024-03-02T07:25:00;9.05;;;5.13;;
14272;SDS011;7220;49.450;11.052;2024-03-02T07:29:01;10.05;;;5.22;;
14272;SDS011;7220;49.450;11.052;2024-03-02T07:33:01;7.85;;;4.40;;
14272;SDS011;7220;49.450;11.052;2024-03-02T07:37:02;12.98;;;5.28;;
14272;SDS011;7220;49.450;11.052;2024-03-02T07:41:02;9.65;;;4.95;;
14272;SDS011;7220;49.450;11.052;2024-03-02T07:45:04;7.55;;;4.47;;
14272;SDS011;7220;49.450;11.052;2024-03-02T07:49:06;9.02;;;5.20;;
14272;SDS011;7220;49.450;11.052;2024-03-02T07:53:07;8.65;;;5.07;;
14272;SDS011;7220;49.450;11.052;2024-03-02T07:57:10;8.07;;;4.90;;
14272;SDS011;7220;49.450;11.052;2024-03-02T08:01:10;7.60;;;4.93;;
14272;SDS011;7220;49.450;11.052;2024-03-02T08:05:11;9.07;;;5.45;;
14272;SDS011;7220;49.450;11.052;2024-03-02T08:09:11;7.82;;;5.07;;
14272;SDS011;7220;49.450;11.052;2024-03-02T08:13:11;8.65;;;4.82;;
14272;SDS011;7220;49.450;11.052;2024-03-02T08:17:12;13.40;;;5.35;;
14272;SDS011;7220;49.450;11.052;2024-03-02T08:21:12;7.63;;;4.70;;
14272;SDS011;7220;49.450;11.052;2024-03-02T08:25:13;7.65;;;4.82;;
14272;SDS011;7220;49.450;11.052;2024-03-02T08:29:14;8.48;;;5.07;;
14272;SDS011;7220;49.450;11.052;2024-03-02T08:33:14;11.48;;;5.25;;
14272;SDS011;7220;49.450;11.052;2024-03-02T08:37:15;8.77;;;4.97;;
14272;SDS011;7220;49.450;11.052;2024-03-02T08:41:15;8.57;;;4.90;;
14272;SDS011;7220;49.450;11.052;2024-03-02T08:45:16;11.20;;;5.20;;
14272;SDS011;7220;49.450;11.052;2024-03-02T08:49:16;8.20;;;4.50;;
14272;SDS011;7220;49.450;11.052;2024-03-02T08:53:17;6.95;;;5.03;;
14272;SDS011;7220;49.450;11.052;2024-03-02T08:57:18;9.15;;;4.80;;
14272;SDS011;7220;49.450;11.052;2024-03-02T09:01:18;11.63;;;5.40;;
14272;SDS011;7220;49.450;11.052;2024-03-02T09:05:22;8.07;;;4.50;;
14272;SDS011;7220;49.450;11.052;2024-03-02T09:09:22;7.63;;;4.82;;
14272;SDS011;7220;49.450;11.052;2024-03-02T09:13:23;9.20;;;4.53;;
14272;SDS011;7220;49.450;11.052;2024-03-02T09:17:23;5.80;;;4.53;;
14272;SDS011;7220;49.450;11.052;2024-03-02T09:21:24;7.63;;;4.15;;
14272;SDS011;7220;49.450;11.052;2024-03-02T09:25:25;5.75;;;4.57;;
14272;SDS011;7220;49.450;11.052;2024-03-02T09:29:25;7.10;;;4.07;;
14272;SDS011;7220;49.450;11.052;2024-03-02T09:33:26;5.75;;;3.95;;
14272;SDS011;7220;49.450;11.052;2024-03-02T09:37:26;6.28;;;4.25;;
14272;SDS011;7220;49.450;11.052;2024-03-02T09:41:28;6.70;;;4.43;;
14272;SDS011;7220;49.450;11.052;2024-03-02T09:45:29;6.63;;;4.03;;
14272;SDS011;7220;49.450;11.052;2024-03-02T09:49:30;7.68;;;4.35;;
14272;SDS011;7220;49.450;11.052;2024-03-02T09:53:31;7.80;;;4.10;;
14272;SDS011;7220;49.450;11.052;2024-03-02T09:57:32;6.20;;;4.43;;
14272;SDS011;7220;49.450;11.052;2024-03-02T10:01:33;5.53;;;4.03;;
14272;SDS011;7220;49.450;11.052;2024-03-02T10:05:33;9.63;;;4.47;;
14272;SDS011;7220;49.450;11.052;2024-03-02T10:09:33;5.32;;;3.70;;
14272;SDS011;7220;49.450;11.052;2024-03-02T10:13:34;5.88;;;3.80;;
14272;SDS011;7220;49.450;11.052;2024-03-02T10:17:34;5.45;;;3.75;;
14272;SDS011;7220;49.450;11.052;2024-03-02T10:21:35;4.75;;;3.47;;
14272;SDS011;7220;49.450;11.052;2024-03-02T10:25:35;4.85;;;3.63;;
14272;SDS011;7220;49.450;11.052;2024-03-02T10:29:36;4.72;;;3.78;;
14272;SDS011;7220;49.450;11.052;2024-03-02T10:33:39;5.88;;;3.58;;
14272;SDS011;7220;49.450;11.052;2024-03-02T10:37:40;4.32;;;3.20;;
14272;SDS011;7220;49.450;11.052;2024-03-02T10:41:41;5.32;;;3.78;;
14272;SDS011;7220;49.450;11.052;2024-03-02T10:45:42;5.18;;;3.40;;
14272;SDS011;7220;49.450;11.052;2024-03-02T10:49:43;5.68;;;3.60;;
14272;SDS011;7220;49.450;11.052;2024-03-02T10:53:46;5.72;;;3.70;;
14272;SDS011;7220;49.450;11.052;2024-03-02T11:01:53;4.88;;;4.15;;
14272;SDS011;7220;49.450;11.052;2024-03-02T11:05:57;7.93;;;5.07;;
14272;SDS011;7220;49.450;11.052;2024-03-02T11:09:59;7.57;;;5.13;;
14272;SDS011;7220;49.450;11.052;2024-03-02T11:14:10;8.70;;;5.20;;
14272;SDS011;7220;49.450;11.052;2024-03-02T11:18:14;7.75;;;4.97;;
